Thursday, June 21, 2018, 6:32 AM EDT
Back to Local

KDCA, Washington National Airport

Location: Arlington, VA, United States Lat: 38.85
Local Time: 6:32 AM EDT (10:32 GMT) Lon: -77.033
Time Zone: US/Eastern Elev: 16 ft

Show me the last for .
Show Decoded

2018-06-21 05:52 METAR KDCA 210952Z 22004KT 10SM FEW008 BKN045 BKN150 23/21 A2975 RMK AO2 SLP074
                 T02280206 =
2018-06-21 04:52 METAR KDCA 210852Z 20004KT 10SM BKN150 23/21 A2974 RMK AO2 SLP069 T02280206
                 56015 =
2018-06-21 03:52 METAR KDCA 210752Z 00000KT 10SM BKN160 23/21 A2974 RMK AO2 SLP069 T02280206 =
2018-06-21 02:52 METAR KDCA 210652Z 21003KT 10SM FEW008 SCT120 OVC200 23/21 A2975 RMK AO2 SLP074
                 T02280206 =
2018-06-21 02:16 METAR KDCA 210616Z 20004KT 10SM FEW008 BKN100 BKN120 OVC200 23/21 A2977 RMK AO2
                 T02280206 =
2018-06-21 01:52 METAR KDCA 210552Z 24005KT 10SM FEW040 SCT095 OVC200 23/21 A2978 RMK AO2 SLP084
                 60012 T02280206 10272 20228 56006 =
2018-06-21 00:52 METAR KDCA 210452Z 26006KT 10SM FEW100 OVC150 23/21 A2979 RMK AO2 SLP088
                 T02330206 403000228 =
2018-06-20 23:52 METAR KDCA 210352Z 00000KT 10SM FEW100 OVC150 23/21 A2978 RMK AO2 RAB09E49
                 SLP084 P0000 T02330206 =
2018-06-20 22:52 METAR KDCA 210252Z 25005KT 10SM FEW034 BKN120 OVC250 23/21 A2980 RMK AO2 LTG
                 DSNT SW RAE22 SLP090 P0001 60012 T02330206 56006 =
2018-06-20 21:52 METAR KDCA 210152Z 21005KT 10SM -RA FEW034 BKN095 BKN130 OVC250 23/21 A2980 RMK
                 AO2 LTG DSNT W AND NW SLP090 P0007 T02330206 =
2018-06-20 20:52 METAR KDCA 210052Z 30005KT 7SM RA BKN030 BKN095 BKN130 OVC230 23/20 A2979 RMK
                 AO2 LTG DSNT N AND NW RAB2359 SLP088 P0004 T02330200 =
2018-06-20 19:52 METAR KDCA 202352Z 27010KT 10SM BKN030 BKN095 BKN130 OVC230 27/21 A2982 RMK AO2
                 SLP096 60001 T02720211 10300 20267 53015 =
2018-06-20 18:52 METAR KDCA 202252Z 00000KT 10SM FEW032 SCT041 BKN055 BKN130 OVC230 27/22 A2977
                 RMK AO2 LTG DSNT E RAE2158B04E44 TSB2154E42 SLP081 P0001 T02720217 =
2018-06-20 18:43 METAR KDCA 202243Z 16003KT 10SM -RA SCT036 BKN110 OVC230 27/21 A2977 RMK AO2 LTG
                 DSNT E-S RAE2158B04 TSB2154E42 P0001 T02720211 =
2018-06-20 18:00 METAR KDCA 202200Z 17003KT 10SM TS SCT036 BKN110 OVC230 27/20 A2976 RMK AO2 LTG
                 DSNT ALQDS RAE2158 TSB2154 P0000 T02720200 =
2018-06-20 17:52 METAR KDCA 202152Z 20004KT 10SM VCTS -RA SCT036 BKN110 OVC230 27/20 A2977 RMK
                 AO2 LTG DSNT SE-W SLP081 P0000 T02720200 =
2018-06-20 17:50 METAR KDCA 202150Z 20004KT 10SM VCTS -RA SCT038 BKN100 BKN120 OVC230 27/20 A2977
                 RMK AO2 LTG DSNT SE-W P0000 =
2018-06-20 16:52 METAR KDCA 202052Z 19004KT 10SM -RA FEW035 SCT075 BKN110 OVC230 28/19 A2979 RMK
                 AO2 LTG DSNT S-W RAB52 SLP089 P0000 60000 T02780194 56017 =
2018-06-20 15:52 METAR KDCA 201952Z 18004KT 10SM FEW035 SCT060 BKN160 OVC230 28/17 A2980 RMK AO2
                 SLP092 T02830167 =
2018-06-20 14:52 METAR KDCA 201852Z 16004KT 10SM SCT065 BKN095 BKN160 29/16 A2983 RMK AO2 SLP100
                 T02890156 =
2018-06-20 13:52 METAR KDCA 201752Z 17006KT 10SM FEW050 BKN095 BKN160 29/18 A2984 RMK AO2 SLP105
                 T02890183 10289 20244 58013 =
2018-06-20 12:52 METAR KDCA 201652Z 17006KT 10SM FEW045 SCT080 OVC120 28/18 A2986 RMK AO2 SLP110
                 T02830178 =
2018-06-20 11:52 METAR KDCA 201552Z 17004KT 10SM SCT042 OVC080 27/18 A2988 RMK AO2 SLP118
                 T02720178 =
2018-06-20 10:52 METAR KDCA 201452Z 23005KT 10SM BKN075 27/17 A2988 RMK AO2 SLP118 T02720167
                 58005 =
2018-06-20 09:52 METAR KDCA 201352Z 00000KT 10SM BKN070 BKN250 26/16 A2989 RMK AO2 SLP121
                 T02610156 =
2018-06-20 08:52 METAR KDCA 201252Z 06005KT 10SM BKN070 BKN250 25/16 A2990 RMK AO2 SLP123
                 T02500156 =
2018-06-20 07:52 METAR KDCA 201152Z 03005KT 10SM BKN070 BKN250 24/14 A2990 RMK AO2 SLP123 70112
                 T02440144 10250 20233 52008 =
2018-06-20 06:52 METAR KDCA 201052Z 04006KT 10SM BKN070 BKN180 BKN250 24/14 A2989 RMK AO2 SLP121
                 T02390139 =

Support USWX by starting your Amazon purchase here.